Volgodonsk, Russia
Current Conditions -  °F | °C
As of 5:00 AM on Thursday 23 Oct 2014 (Local Time) from URRR Reporting Station
Haze Haze  
Wind Chill: 43°   Ceiling: 300
Heat Index: 48°   Visibility: 1mi
Dew Point: 48°   Wind: 11mph
Humidity: 100%   Direction: 50°NE
Pressure: 29.91"   Gusts: NA
Location:  47.51°N, 42.15°E
Report Text: URRR 230200Z 05005MPS 1600 BR OVC003 09/09 Q1013 04110060 TEMPO0600 FG BKN002 RMK QBB100 MAST OBSC
Loading
Personal Weather Stations






























Interactive Weather Map
Tropical Storm Tracking
New forecast layout! Learn more

10-Day Weather Forecast

Advertisements
Track Severe Weather on mobile